sensor_id;sensor_type;location;lat;lon;timestamp;pressure;altitude;pressure_sealevel;temperature;humidity
24834;BME280;12914;43.702;22.862;2022-08-19T00:01:50;98566.31;;;38.15;30.29
24834;BME280;12914;43.702;22.862;2022-08-19T00:04:18;98569.25;;;37.93;31.04
24834;BME280;12914;43.702;22.862;2022-08-19T00:06:45;98557.53;;;37.93;30.72
24834;BME280;12914;43.702;22.862;2022-08-19T00:09:13;98560.50;;;38.59;30.01
24834;BME280;12914;43.702;22.862;2022-08-19T00:11:40;98553.69;;;38.12;30.23
24834;BME280;12914;43.702;22.862;2022-08-19T00:14:08;98556.59;;;38.67;29.71
24834;BME280;12914;43.702;22.862;2022-08-19T00:16:38;98554.16;;;38.30;29.99
24834;BME280;12914;43.702;22.862;2022-08-19T00:19:04;98545.53;;;38.11;30.50
24834;BME280;12914;43.702;22.862;2022-08-19T00:21:30;98549.91;;;37.88;30.62
24834;BME280;12914;43.702;22.862;2022-08-19T00:23:57;98549.81;;;38.19;30.53
24834;BME280;12914;43.702;22.862;2022-08-19T00:26:25;98545.66;;;37.27;31.66
24834;BME280;12914;43.702;22.862;2022-08-19T00:28:50;98558.31;;;37.94;30.70
24834;BME280;12914;43.702;22.862;2022-08-19T00:31:16;98546.06;;;38.40;30.23
24834;BME280;12914;43.702;22.862;2022-08-19T00:33:42;98548.91;;;37.95;30.33
24834;BME280;12914;43.702;22.862;2022-08-19T00:36:09;98552.19;;;37.90;30.49
24834;BME280;12914;43.702;22.862;2022-08-19T00:38:37;98549.97;;;37.79;31.33
24834;BME280;12914;43.702;22.862;2022-08-19T00:41:06;98546.25;;;36.95;31.79
24834;BME280;12914;43.702;22.862;2022-08-19T00:43:33;98546.88;;;36.93;31.92
24834;BME280;12914;43.702;22.862;2022-08-19T00:45:58;98549.06;;;37.14;31.42
24834;BME280;12914;43.702;22.862;2022-08-19T00:48:24;98540.06;;;37.00;31.80
24834;BME280;12914;43.702;22.862;2022-08-19T00:50:51;98541.22;;;37.17;31.94
24834;BME280;12914;43.702;22.862;2022-08-19T00:53:20;98534.88;;;37.30;31.72
24834;BME280;12914;43.702;22.862;2022-08-19T00:55:49;98539.28;;;36.59;32.61
24834;BME280;12914;43.702;22.862;2022-08-19T00:58:18;98538.34;;;36.76;32.10
24834;BME280;12914;43.702;22.862;2022-08-19T01:00:45;98547.38;;;36.70;32.17
24834;BME280;12914;43.702;22.862;2022-08-19T01:03:14;98539.88;;;37.39;31.53
24834;BME280;12914;43.702;22.862;2022-08-19T01:05:42;98545.78;;;37.82;30.86
24834;BME280;12914;43.702;22.862;2022-08-19T01:08:09;98544.00;;;37.77;30.70
24834;BME280;12914;43.702;22.862;2022-08-19T01:11:00;98544.63;;;37.75;30.76
24834;BME280;12914;43.702;22.862;2022-08-19T01:13:28;98539.81;;;38.67;29.80
24834;BME280;12914;43.702;22.862;2022-08-19T01:16:00;98548.09;;;38.82;30.25
24834;BME280;12914;43.702;22.862;2022-08-19T01:18:26;98546.09;;;38.52;30.99
24834;BME280;12914;43.702;22.862;2022-08-19T01:20:54;98539.03;;;38.00;32.03
24834;BME280;12914;43.702;22.862;2022-08-19T01:23:21;98535.94;;;36.34;33.59
24834;BME280;12914;43.702;22.862;2022-08-19T01:26:07;98533.31;;;35.51;34.42
24834;BME280;12914;43.702;22.862;2022-08-19T01:28:32;98537.94;;;36.02;33.43
24834;BME280;12914;43.702;22.862;2022-08-19T01:30:58;98534.06;;;35.42;34.16
24834;BME280;12914;43.702;22.862;2022-08-19T01:33:24;98538.81;;;34.47;35.96
24834;BME280;12914;43.702;22.862;2022-08-19T01:35:49;98538.03;;;34.29;37.11
24834;BME280;12914;43.702;22.862;2022-08-19T01:38:25;98542.69;;;34.32;37.25
24834;BME280;12914;43.702;22.862;2022-08-19T01:40:51;98541.94;;;33.80;37.27
24834;BME280;12914;43.702;22.862;2022-08-19T01:43:17;98546.28;;;34.40;36.42
24834;BME280;12914;43.702;22.862;2022-08-19T01:45:45;98543.25;;;35.48;35.58
24834;BME280;12914;43.702;22.862;2022-08-19T01:48:11;98552.16;;;35.50;35.44
24834;BME280;12914;43.702;22.862;2022-08-19T01:50:37;98539.72;;;33.88;37.72
24834;BME280;12914;43.702;22.862;2022-08-19T01:53:06;98550.91;;;34.43;36.27
24834;BME280;12914;43.702;22.862;2022-08-19T01:55:33;98547.91;;;34.16;36.18
24834;BME280;12914;43.702;22.862;2022-08-19T01:58:02;98546.84;;;35.29;34.76
24834;BME280;12914;43.702;22.862;2022-08-19T02:00:31;98542.06;;;36.38;33.68
24834;BME280;12914;43.702;22.862;2022-08-19T02:02:57;98534.53;;;36.54;32.66
24834;BME280;12914;43.702;22.862;2022-08-19T02:05:24;98542.53;;;36.25;33.05
24834;BME280;12914;43.702;22.862;2022-08-19T02:07:50;98548.97;;;37.64;31.23
24834;BME280;12914;43.702;22.862;2022-08-19T02:10:20;98544.88;;;37.58;32.74
24834;BME280;12914;43.702;22.862;2022-08-19T02:12:46;98549.59;;;36.12;34.61
24834;BME280;12914;43.702;22.862;2022-08-19T02:15:13;98553.44;;;36.14;33.59
24834;BME280;12914;43.702;22.862;2022-08-19T02:17:39;98547.47;;;35.93;33.58
24834;BME280;12914;43.702;22.862;2022-08-19T02:20:06;98549.25;;;35.13;34.54
24834;BME280;12914;43.702;22.862;2022-08-19T02:22:32;98551.63;;;34.88;34.77
24834;BME280;12914;43.702;22.862;2022-08-19T02:24:58;98550.78;;;35.61;33.99
24834;BME280;12914;43.702;22.862;2022-08-19T02:27:24;98554.47;;;36.67;32.79
24834;BME280;12914;43.702;22.862;2022-08-19T02:29:51;98555.06;;;37.16;32.11
24834;BME280;12914;43.702;22.862;2022-08-19T02:32:18;98549.56;;;37.42;32.54
24834;BME280;12914;43.702;22.862;2022-08-19T02:34:47;98554.00;;;37.12;33.40
24834;BME280;12914;43.702;22.862;2022-08-19T02:37:13;98546.81;;;36.24;33.52
24834;BME280;12914;43.702;22.862;2022-08-19T02:39:57;98555.44;;;35.83;34.90
24834;BME280;12914;43.702;22.862;2022-08-19T02:42:23;98549.78;;;34.93;36.23
24834;BME280;12914;43.702;22.862;2022-08-19T02:44:49;98558.13;;;34.79;37.26
24834;BME280;12914;43.702;22.862;2022-08-19T02:47:14;98557.56;;;35.73;35.36
24834;BME280;12914;43.702;22.862;2022-08-19T02:49:41;98564.03;;;34.27;37.47
24834;BME280;12914;43.702;22.862;2022-08-19T02:52:06;98563.84;;;33.39;38.07
24834;BME280;12914;43.702;22.862;2022-08-19T02:54:32;98561.09;;;34.35;37.36
24834;BME280;12914;43.702;22.862;2022-08-19T02:56:57;98558.69;;;34.95;36.54
24834;BME280;12914;43.702;22.862;2022-08-19T02:59:23;98563.78;;;35.04;36.76
24834;BME280;12914;43.702;22.862;2022-08-19T03:01:51;98573.78;;;34.83;36.96
24834;BME280;12914;43.702;22.862;2022-08-19T03:04:16;98570.38;;;34.50;37.59
24834;BME280;12914;43.702;22.862;2022-08-19T03:06:44;98558.34;;;34.02;38.48
24834;BME280;12914;43.702;22.862;2022-08-19T03:09:11;98569.88;;;33.08;39.75
24834;BME280;12914;43.702;22.862;2022-08-19T03:11:37;98562.47;;;32.90;39.46
24834;BME280;12914;43.702;22.862;2022-08-19T03:14:04;98569.41;;;33.44;38.57
24834;BME280;12914;43.702;22.862;2022-08-19T03:16:35;98570.47;;;32.74;39.26
24834;BME280;12914;43.702;22.862;2022-08-19T03:19:04;98571.19;;;32.02;40.76
24834;BME280;12914;43.702;22.862;2022-08-19T03:21:33;98579.25;;;32.26;40.91
24834;BME280;12914;43.702;22.862;2022-08-19T03:24:02;98577.41;;;31.91;42.07
24834;BME280;12914;43.702;22.862;2022-08-19T03:26:28;98573.09;;;32.07;40.92
24834;BME280;12914;43.702;22.862;2022-08-19T03:28:55;98581.69;;;32.45;40.30
24834;BME280;12914;43.702;22.862;2022-08-19T03:31:22;98579.59;;;33.53;38.93
24834;BME280;12914;43.702;22.862;2022-08-19T03:33:49;98588.00;;;34.01;37.93
24834;BME280;12914;43.702;22.862;2022-08-19T03:36:19;98588.22;;;34.64;38.27
24834;BME280;12914;43.702;22.862;2022-08-19T03:38:46;98592.44;;;35.07;38.00
24834;BME280;12914;43.702;22.862;2022-08-19T03:41:16;98599.56;;;33.91;39.30
24834;BME280;12914;43.702;22.862;2022-08-19T03:43:42;98602.88;;;33.87;39.27
24834;BME280;12914;43.702;22.862;2022-08-19T03:46:11;98596.19;;;34.29;39.23
24834;BME280;12914;43.702;22.862;2022-08-19T03:48:39;98598.03;;;34.42;39.15
24834;BME280;12914;43.702;22.862;2022-08-19T03:51:06;98609.31;;;34.03;38.41
24834;BME280;12914;43.702;22.862;2022-08-19T03:53:34;98619.88;;;34.60;37.61
24834;BME280;12914;43.702;22.862;2022-08-19T03:56:00;98623.19;;;34.74;37.26
24834;BME280;12914;43.702;22.862;2022-08-19T03:58:27;98627.41;;;33.94;38.02
24834;BME280;12914;43.702;22.862;2022-08-19T04:00:54;98628.91;;;33.78;38.39
24834;BME280;12914;43.702;22.862;2022-08-19T04:03:20;98629.09;;;32.32;39.83
24834;BME280;12914;43.702;22.862;2022-08-19T04:05:46;98625.00;;;32.83;39.65
24834;BME280;12914;43.702;22.862;2022-08-19T04:08:12;98630.88;;;33.00;39.36
24834;BME280;12914;43.702;22.862;2022-08-19T04:10:38;98632.97;;;32.12;40.80
24834;BME280;12914;43.702;22.862;2022-08-19T04:13:06;98629.47;;;32.36;40.58
24834;BME280;12914;43.702;22.862;2022-08-19T04:15:32;98638.69;;;32.90;40.00
24834;BME280;12914;43.702;22.862;2022-08-19T04:18:04;98642.50;;;32.60;41.07
24834;BME280;12914;43.702;22.862;2022-08-19T04:20:38;98644.00;;;32.06;41.35
24834;BME280;12914;43.702;22.862;2022-08-19T04:23:04;98651.97;;;31.52;42.85
24834;BME280;12914;43.702;22.862;2022-08-19T04:25:38;98651.09;;;32.83;41.46
24834;BME280;12914;43.702;22.862;2022-08-19T04:28:06;98645.81;;;33.22;40.37
24834;BME280;12914;43.702;22.862;2022-08-19T04:30:38;98641.72;;;33.75;40.25
24834;BME280;12914;43.702;22.862;2022-08-19T04:33:04;98636.59;;;32.43;41.36
24834;BME280;12914;43.702;22.862;2022-08-19T04:35:35;98639.59;;;33.33;40.67
24834;BME280;12914;43.702;22.862;2022-08-19T04:38:01;98641.50;;;32.25;41.56
24834;BME280;12914;43.702;22.862;2022-08-19T04:40:27;98644.22;;;32.63;42.01
24834;BME280;12914;43.702;22.862;2022-08-19T04:43:11;98655.41;;;32.67;41.85
24834;BME280;12914;43.702;22.862;2022-08-19T04:45:38;98653.06;;;32.10;42.57
24834;BME280;12914;43.702;22.862;2022-08-19T04:48:04;98656.50;;;32.87;41.81
24834;BME280;12914;43.702;22.862;2022-08-19T04:50:30;98651.16;;;33.83;40.28
24834;BME280;12914;43.702;22.862;2022-08-19T04:52:56;98664.69;;;34.05;40.23
24834;BME280;12914;43.702;22.862;2022-08-19T04:55:21;98667.47;;;32.96;41.69
24834;BME280;12914;43.702;22.862;2022-08-19T04:57:47;98665.72;;;33.33;41.36
24834;BME280;12914;43.702;22.862;2022-08-19T05:00:12;98672.06;;;33.39;41.12
24834;BME280;12914;43.702;22.862;2022-08-19T05:02:38;98663.75;;;33.36;41.64
24834;BME280;12914;43.702;22.862;2022-08-19T05:05:04;98661.16;;;32.34;43.66
24834;BME280;12914;43.702;22.862;2022-08-19T05:07:31;98665.66;;;32.68;42.47
24834;BME280;12914;43.702;22.862;2022-08-19T05:09:57;98661.03;;;33.38;41.82
24834;BME280;12914;43.702;22.862;2022-08-19T05:12:22;98658.78;;;33.21;42.25
24834;BME280;12914;43.702;22.862;2022-08-19T05:14:49;98659.84;;;33.08;42.63
24834;BME280;12914;43.702;22.862;2022-08-19T05:17:15;98656.53;;;33.44;41.93
24834;BME280;12914;43.702;22.862;2022-08-19T05:19:41;98656.72;;;33.14;42.96
24834;BME280;12914;43.702;22.862;2022-08-19T05:22:25;98663.63;;;34.35;40.49
24834;BME280;12914;43.702;22.862;2022-08-19T05:25:08;98662.84;;;33.75;41.38
24834;BME280;12914;43.702;22.862;2022-08-19T05:27:34;98657.50;;;34.23;40.67
24834;BME280;12914;43.702;22.862;2022-08-19T05:30:00;98648.13;;;33.31;41.83
24834;BME280;12914;43.702;22.862;2022-08-19T05:32:26;98645.63;;;33.20;41.83
24834;BME280;12914;43.702;22.862;2022-08-19T05:34:52;98653.63;;;33.44;41.51
24834;BME280;12914;43.702;22.862;2022-08-19T05:37:18;98645.22;;;33.73;41.03
24834;BME280;12914;43.702;22.862;2022-08-19T05:39:43;98652.22;;;34.12;40.79
24834;BME280;12914;43.702;22.862;2022-08-19T05:42:10;98650.50;;;34.61;39.96
24834;BME280;12914;43.702;22.862;2022-08-19T05:44:39;98656.13;;;35.30;40.25
24834;BME280;12914;43.702;22.862;2022-08-19T05:47:08;98657.38;;;34.39;41.06
24834;BME280;12914;43.702;22.862;2022-08-19T05:49:34;98659.34;;;35.51;39.61
24834;BME280;12914;43.702;22.862;2022-08-19T05:52:06;98663.53;;;36.43;38.77
24834;BME280;12914;43.702;22.862;2022-08-19T05:54:33;98662.88;;;36.15;38.50
24834;BME280;12914;43.702;22.862;2022-08-19T05:57:00;98666.44;;;35.68;39.74
24834;BME280;12914;43.702;22.862;2022-08-19T05:59:26;98668.19;;;35.44;39.88
24834;BME280;12914;43.702;22.862;2022-08-19T06:01:52;98670.22;;;36.17;38.90
24834;BME280;12914;43.702;22.862;2022-08-19T06:04:21;98667.50;;;35.63;40.27
24834;BME280;12914;43.702;22.862;2022-08-19T06:06:49;98678.13;;;36.82;38.87
24834;BME280;12914;43.702;22.862;2022-08-19T06:09:17;98672.53;;;36.08;39.25
24834;BME280;12914;43.702;22.862;2022-08-19T06:11:46;98673.97;;;36.46;38.86
24834;BME280;12914;43.702;22.862;2022-08-19T06:14:15;98680.03;;;35.92;39.59
24834;BME280;12914;43.702;22.862;2022-08-19T06:16:41;98682.69;;;36.94;38.15
24834;BME280;12914;43.702;22.862;2022-08-19T06:19:09;98687.31;;;34.49;41.27
24834;BME280;12914;43.702;22.862;2022-08-19T06:21:37;98676.09;;;36.36;39.17
24834;BME280;12914;43.702;22.862;2022-08-19T06:24:05;98691.16;;;35.76;39.57
24834;BME280;12914;43.702;22.862;2022-08-19T06:26:31;98684.69;;;36.72;38.49
24834;BME280;12914;43.702;22.862;2022-08-19T06:28:58;98692.63;;;36.04;38.79
24834;BME280;12914;43.702;22.862;2022-08-19T06:31:25;98688.00;;;36.01;39.57
24834;BME280;12914;43.702;22.862;2022-08-19T06:33:52;98685.88;;;35.56;40.07
24834;BME280;12914;43.702;22.862;2022-08-19T06:36:21;98687.88;;;37.15;37.67
24834;BME280;12914;43.702;22.862;2022-08-19T06:38:47;98690.50;;;36.24;39.56
24834;BME280;12914;43.702;22.862;2022-08-19T06:41:12;98691.94;;;36.71;38.57
24834;BME280;12914;43.702;22.862;2022-08-19T06:43:38;98685.16;;;34.84;41.08
24834;BME280;12914;43.702;22.862;2022-08-19T06:46:04;98687.88;;;35.63;40.05
24834;BME280;12914;43.702;22.862;2022-08-19T06:48:35;98684.56;;;36.41;38.84
24834;BME280;12914;43.702;22.862;2022-08-19T06:51:01;98698.84;;;36.66;38.36
24834;BME280;12914;43.702;22.862;2022-08-19T06:53:29;98704.56;;;38.15;37.36
24834;BME280;12914;43.702;22.862;2022-08-19T06:55:54;98701.91;;;36.59;39.11
24834;BME280;12914;43.702;22.862;2022-08-19T06:58:30;98711.28;;;39.71;35.22
24834;BME280;12914;43.702;22.862;2022-08-19T07:01:02;98701.69;;;38.27;36.36
24834;BME280;12914;43.702;22.862;2022-08-19T07:03:32;98703.94;;;38.38;36.78
24834;BME280;12914;43.702;22.862;2022-08-19T07:06:12;98706.34;;;39.17;35.66
24834;BME280;12914;43.702;22.862;2022-08-19T07:08:40;98702.81;;;38.22;37.08
24834;BME280;12914;43.702;22.862;2022-08-19T07:11:09;98710.63;;;38.29;36.84
24834;BME280;12914;43.702;22.862;2022-08-19T07:13:36;98701.69;;;38.48;36.62
24834;BME280;12914;43.702;22.862;2022-08-19T07:16:11;98695.69;;;38.03;37.03
24834;BME280;12914;43.702;22.862;2022-08-19T07:18:37;98705.25;;;37.63;37.49
24834;BME280;12914;43.702;22.862;2022-08-19T07:21:09;98701.53;;;37.22;38.52
24834;BME280;12914;43.702;22.862;2022-08-19T07:23:35;98703.47;;;36.50;38.69
24834;BME280;12914;43.702;22.862;2022-08-19T07:26:10;98709.03;;;39.25;36.24
24834;BME280;12914;43.702;22.862;2022-08-19T07:28:36;98701.75;;;39.26;35.63
24834;BME280;12914;43.702;22.862;2022-08-19T07:31:06;98710.28;;;39.55;35.42
24834;BME280;12914;43.702;22.862;2022-08-19T07:33:33;98711.41;;;39.62;35.11
24834;BME280;12914;43.702;22.862;2022-08-19T07:36:01;98703.91;;;40.66;33.64
24834;BME280;12914;43.702;22.862;2022-08-19T07:38:26;98707.25;;;39.32;34.96
24834;BME280;12914;43.702;22.862;2022-08-19T07:40:52;98705.47;;;37.87;36.79
24834;BME280;12914;43.702;22.862;2022-08-19T07:43:19;98699.69;;;39.97;34.54
24834;BME280;12914;43.702;22.862;2022-08-19T07:45:45;98703.75;;;39.92;34.57
24834;BME280;12914;43.702;22.862;2022-08-19T07:48:12;98710.09;;;39.53;34.67
24834;BME280;12914;43.702;22.862;2022-08-19T07:50:38;98694.97;;;38.67;36.04
24834;BME280;12914;43.702;22.862;2022-08-19T07:53:04;98703.38;;;38.30;36.11
24834;BME280;12914;43.702;22.862;2022-08-19T07:55:29;98695.72;;;38.25;36.35
24834;BME280;12914;43.702;22.862;2022-08-19T07:57:55;98697.88;;;38.24;36.22
24834;BME280;12914;43.702;22.862;2022-08-19T08:00:21;98713.81;;;40.35;34.58
24834;BME280;12914;43.702;22.862;2022-08-19T08:02:47;98695.72;;;40.04;35.21
24834;BME280;12914;43.702;22.862;2022-08-19T08:05:13;98699.34;;;39.34;35.28
24834;BME280;12914;43.702;22.862;2022-08-19T08:08:04;98698.78;;;42.23;32.66
24834;BME280;12914;43.702;22.862;2022-08-19T08:10:48;98691.88;;;42.46;31.00
24834;BME280;12914;43.702;22.862;2022-08-19T08:13:15;98699.31;;;42.90;29.65
24834;BME280;12914;43.702;22.862;2022-08-19T08:15:41;98690.31;;;41.49;32.44
24834;BME280;12914;43.702;22.862;2022-08-19T08:18:07;98695.69;;;41.01;31.97
24834;BME280;12914;43.702;22.862;2022-08-19T08:20:33;98693.34;;;43.04;30.72
24834;BME280;12914;43.702;22.862;2022-08-19T08:22:59;98687.34;;;43.62;30.00
24834;BME280;12914;43.702;22.862;2022-08-19T08:25:43;98691.91;;;44.13;28.91
24834;BME280;12914;43.702;22.862;2022-08-19T08:28:08;98696.88;;;44.42;29.02
24834;BME280;12914;43.702;22.862;2022-08-19T08:30:35;98690.91;;;43.14;30.08
24834;BME280;12914;43.702;22.862;2022-08-19T08:33:02;98688.59;;;43.89;28.97
24834;BME280;12914;43.702;22.862;2022-08-19T08:35:28;98686.63;;;44.61;28.35
24834;BME280;12914;43.702;22.862;2022-08-19T08:37:54;98683.69;;;47.14;26.51
24834;BME280;12914;43.702;22.862;2022-08-19T08:40:30;98683.94;;;45.20;26.87
24834;BME280;12914;43.702;22.862;2022-08-19T08:45:33;98676.31;;;42.86;30.21
24834;BME280;12914;43.702;22.862;2022-08-19T08:48:06;98683.75;;;43.03;30.03
24834;BME280;12914;43.702;22.862;2022-08-19T08:50:42;98674.47;;;44.19;29.00
24834;BME280;12914;43.702;22.862;2022-08-19T08:53:10;98680.16;;;44.82;28.02
24834;BME280;12914;43.702;22.862;2022-08-19T08:55:36;98681.72;;;44.83;27.80
24834;BME280;12914;43.702;22.862;2022-08-19T08:58:09;98676.00;;;44.71;28.08
24834;BME280;12914;43.702;22.862;2022-08-19T09:00:41;98670.59;;;46.14;27.71
24834;BME280;12914;43.702;22.862;2022-08-19T09:03:28;98673.78;;;46.00;26.94
24834;BME280;12914;43.702;22.862;2022-08-19T09:06:03;98663.03;;;44.78;28.65
24834;BME280;12914;43.702;22.862;2022-08-19T09:09:04;98664.16;;;45.42;27.15
24834;BME280;12914;43.702;22.862;2022-08-19T09:14:58;98660.19;;;45.93;26.47
24834;BME280;12914;43.702;22.862;2022-08-19T09:17:28;98661.22;;;47.55;25.72
24834;BME280;12914;43.702;22.862;2022-08-19T09:19:59;98654.59;;;46.01;27.13
24834;BME280;12914;43.702;22.862;2022-08-19T09:22:29;98655.09;;;45.76;27.45
24834;BME280;12914;43.702;22.862;2022-08-19T09:24:55;98654.84;;;42.99;28.58
24834;BME280;12914;43.702;22.862;2022-08-19T09:27:22;98658.97;;;45.23;26.84
24834;BME280;12914;43.702;22.862;2022-08-19T09:29:49;98642.19;;;46.70;26.40
24834;BME280;12914;43.702;22.862;2022-08-19T09:32:15;98638.13;;;47.27;25.88
24834;BME280;12914;43.702;22.862;2022-08-19T09:34:42;98638.81;;;49.13;25.05
24834;BME280;12914;43.702;22.862;2022-08-19T09:37:08;98636.00;;;48.89;24.54
24834;BME280;12914;43.702;22.862;2022-08-19T09:39:34;98631.84;;;47.89;25.86
24834;BME280;12914;43.702;22.862;2022-08-19T09:41:59;98624.13;;;49.21;24.27
24834;BME280;12914;43.702;22.862;2022-08-19T09:44:25;98622.63;;;48.60;25.85
24834;BME280;12914;43.702;22.862;2022-08-19T09:46:51;98614.22;;;48.81;24.65
24834;BME280;12914;43.702;22.862;2022-08-19T09:49:18;98618.22;;;48.34;24.84
24834;BME280;12914;43.702;22.862;2022-08-19T09:51:44;98621.88;;;48.32;24.75
24834;BME280;12914;43.702;22.862;2022-08-19T09:54:09;98622.03;;;47.11;25.54
24834;BME280;12914;43.702;22.862;2022-08-19T09:56:35;98626.22;;;46.36;26.79
24834;BME280;12914;43.702;22.862;2022-08-19T09:59:02;98625.00;;;49.60;23.87
24834;BME280;12914;43.702;22.862;2022-08-19T10:01:30;98618.25;;;49.60;22.51
24834;BME280;12914;43.702;22.862;2022-08-19T10:03:57;98618.66;;;50.14;21.94
24834;BME280;12914;43.702;22.862;2022-08-19T10:06:26;98610.41;;;51.49;21.01
24834;BME280;12914;43.702;22.862;2022-08-19T10:08:55;98616.44;;;49.78;23.21
24834;BME280;12914;43.702;22.862;2022-08-19T10:11:21;98606.81;;;51.61;21.37
24834;BME280;12914;43.702;22.862;2022-08-19T10:13:47;98611.41;;;50.25;21.89
24834;BME280;12914;43.702;22.862;2022-08-19T10:16:20;98609.69;;;52.11;21.24
24834;BME280;12914;43.702;22.862;2022-08-19T10:18:48;98609.41;;;51.91;22.17
24834;BME280;12914;43.702;22.862;2022-08-19T10:21:26;98605.84;;;49.03;24.30
24834;BME280;12914;43.702;22.862;2022-08-19T10:23:54;98599.72;;;48.37;24.18
24834;BME280;12914;43.702;22.862;2022-08-19T10:26:28;98598.91;;;48.63;23.79
24834;BME280;12914;43.702;22.862;2022-08-19T10:28:54;98612.84;;;48.86;24.50
24834;BME280;12914;43.702;22.862;2022-08-19T10:31:24;98602.66;;;47.55;24.42
24834;BME280;12914;43.702;22.862;2022-08-19T10:33:51;98598.53;;;49.08;25.22
24834;BME280;12914;43.702;22.862;2022-08-19T10:36:27;98598.59;;;49.44;23.69
24834;BME280;12914;43.702;22.862;2022-08-19T10:38:56;98601.13;;;48.62;23.75
24834;BME280;12914;43.702;22.862;2022-08-19T10:41:26;98601.09;;;50.74;22.56
24834;BME280;12914;43.702;22.862;2022-08-19T10:43:53;98597.66;;;49.70;22.88
24834;BME280;12914;43.702;22.862;2022-08-19T10:46:21;98596.19;;;49.71;23.47
24834;BME280;12914;43.702;22.862;2022-08-19T10:48:47;98598.13;;;50.32;23.56
24834;BME280;12914;43.702;22.862;2022-08-19T10:51:13;98587.50;;;50.21;22.58
24834;BME280;12914;43.702;22.862;2022-08-19T10:53:58;98585.28;;;49.47;22.52
24834;BME280;12914;43.702;22.862;2022-08-19T10:56:24;98585.94;;;49.10;23.69
24834;BME280;12914;43.702;22.862;2022-08-19T10:59:08;98586.69;;;50.61;23.11
24834;BME280;12914;43.702;22.862;2022-08-19T11:01:35;98583.16;;;49.54;22.54
24834;BME280;12914;43.702;22.862;2022-08-19T11:04:02;98577.88;;;51.17;21.84
24834;BME280;12914;43.702;22.862;2022-08-19T11:06:28;98577.38;;;50.38;22.02
24834;BME280;12914;43.702;22.862;2022-08-19T11:08:55;98572.53;;;51.07;21.79
24834;BME280;12914;43.702;22.862;2022-08-19T11:11:21;98574.97;;;50.29;21.45
24834;BME280;12914;43.702;22.862;2022-08-19T11:13:47;98564.75;;;49.98;22.24
24834;BME280;12914;43.702;22.862;2022-08-19T11:16:17;98572.53;;;49.79;23.41
24834;BME280;12914;43.702;22.862;2022-08-19T11:18:46;98563.56;;;48.77;22.89
24834;BME280;12914;43.702;22.862;2022-08-19T11:21:14;98561.69;;;48.59;22.35
24834;BME280;12914;43.702;22.862;2022-08-19T11:23:42;98552.78;;;50.38;21.22
24834;BME280;12914;43.702;22.862;2022-08-19T11:26:08;98544.16;;;49.04;22.55
24834;BME280;12914;43.702;22.862;2022-08-19T11:28:35;98548.16;;;46.95;23.04
24834;BME280;12914;43.702;22.862;2022-08-19T11:31:01;98552.63;;;49.17;21.77
24834;BME280;12914;43.702;22.862;2022-08-19T11:33:30;98548.56;;;50.99;21.52
24834;BME280;12914;43.702;22.862;2022-08-19T11:35:58;98540.69;;;51.87;20.88
24834;BME280;12914;43.702;22.862;2022-08-19T11:38:25;98541.50;;;50.30;20.78
24834;BME280;12914;43.702;22.862;2022-08-19T11:40:58;98534.19;;;50.39;21.14
24834;BME280;12914;43.702;22.862;2022-08-19T11:43:24;98532.78;;;52.16;19.66
24834;BME280;12914;43.702;22.862;2022-08-19T11:45:53;98535.97;;;53.66;20.01
24834;BME280;12914;43.702;22.862;2022-08-19T11:48:19;98533.72;;;53.64;19.87
24834;BME280;12914;43.702;22.862;2022-08-19T11:50:52;98522.81;;;50.28;20.58
24834;BME280;12914;43.702;22.862;2022-08-19T11:53:19;98519.88;;;50.30;20.78
24834;BME280;12914;43.702;22.862;2022-08-19T11:55:46;98516.53;;;51.62;20.22
24834;BME280;12914;43.702;22.862;2022-08-19T11:58:14;98517.91;;;53.35;20.50
24834;BME280;12914;43.702;22.862;2022-08-19T12:00:40;98508.00;;;53.04;19.25
24834;BME280;12914;43.702;22.862;2022-08-19T12:03:06;98510.47;;;53.52;19.14
24834;BME280;12914;43.702;22.862;2022-08-19T12:05:32;98504.59;;;54.03;20.42
24834;BME280;12914;43.702;22.862;2022-08-19T12:07:58;98504.28;;;53.06;19.07
24834;BME280;12914;43.702;22.862;2022-08-19T12:10:24;98503.03;;;53.74;18.44
24834;BME280;12914;43.702;22.862;2022-08-19T12:12:50;98498.16;;;51.92;19.88
24834;BME280;12914;43.702;22.862;2022-08-19T12:15:16;98500.00;;;52.28;20.99
24834;BME280;12914;43.702;22.862;2022-08-19T12:17:42;98494.94;;;51.03;19.98
24834;BME280;12914;43.702;22.862;2022-08-19T12:20:09;98494.47;;;51.98;19.35
24834;BME280;12914;43.702;22.862;2022-08-19T12:22:38;98491.84;;;51.58;19.93
24834;BME280;12914;43.702;22.862;2022-08-19T12:25:07;98486.22;;;52.87;20.45
24834;BME280;12914;43.702;22.862;2022-08-19T12:27:33;98487.69;;;52.82;19.05
24834;BME280;12914;43.702;22.862;2022-08-19T12:30:00;98488.06;;;53.78;17.97
24834;BME280;12914;43.702;22.862;2022-08-19T12:32:27;98482.72;;;55.04;18.25
24834;BME280;12914;43.702;22.862;2022-08-19T12:34:52;98482.84;;;53.91;18.67
24834;BME280;12914;43.702;22.862;2022-08-19T12:37:18;98481.34;;;54.63;18.76
24834;BME280;12914;43.702;22.862;2022-08-19T12:39:44;98475.00;;;52.88;18.98
24834;BME280;12914;43.702;22.862;2022-08-19T12:42:12;98474.63;;;53.95;18.24
24834;BME280;12914;43.702;22.862;2022-08-19T12:44:39;98479.81;;;53.70;18.90
24834;BME280;12914;43.702;22.862;2022-08-19T12:47:06;98468.44;;;55.09;17.97
24834;BME280;12914;43.702;22.862;2022-08-19T12:49:33;98470.06;;;53.60;18.57
24834;BME280;12914;43.702;22.862;2022-08-19T12:52:06;98469.94;;;55.24;18.70
24834;BME280;12914;43.702;22.862;2022-08-19T12:54:33;98467.03;;;53.43;18.66
24834;BME280;12914;43.702;22.862;2022-08-19T12:56:59;98457.38;;;54.46;18.65
24834;BME280;12914;43.702;22.862;2022-08-19T12:59:26;98451.97;;;53.19;18.52
24834;BME280;12914;43.702;22.862;2022-08-19T13:01:51;98450.50;;;53.22;18.28